sensor_id;sensor_type;location;lat;lon;timestamp;P1;durP1;ratioP1;P2;durP2;ratioP2
11960;SDS011;6040;49.358;11.140;2023-09-19T00:01:40;3.97;;;2.17;;
11960;SDS011;6040;49.358;11.140;2023-09-19T00:04:09;2.63;;;2.10;;
11960;SDS011;6040;49.358;11.140;2023-09-19T00:06:37;2.63;;;1.90;;
11960;SDS011;6040;49.358;11.140;2023-09-19T00:09:04;3.67;;;2.10;;
11960;SDS011;6040;49.358;11.140;2023-09-19T00:11:35;5.10;;;1.80;;
11960;SDS011;6040;49.358;11.140;2023-09-19T00:14:02;4.93;;;2.00;;
11960;SDS011;6040;49.358;11.140;2023-09-19T00:16:30;4.63;;;2.00;;
11960;SDS011;6040;49.358;11.140;2023-09-19T00:18:59;2.23;;;2.03;;
11960;SDS011;6040;49.358;11.140;2023-09-19T00:21:34;3.60;;;2.03;;
11960;SDS011;6040;49.358;11.140;2023-09-19T00:24:02;3.73;;;1.80;;
11960;SDS011;6040;49.358;11.140;2023-09-19T00:26:31;2.17;;;1.97;;
11960;SDS011;6040;49.358;11.140;2023-09-19T00:28:59;3.50;;;2.20;;
11960;SDS011;6040;49.358;11.140;2023-09-19T00:31:31;3.33;;;2.00;;
11960;SDS011;6040;49.358;11.140;2023-09-19T00:33:59;2.53;;;1.90;;
11960;SDS011;6040;49.358;11.140;2023-09-19T00:36:29;2.10;;;1.80;;
11960;SDS011;6040;49.358;11.140;2023-09-19T00:38:56;3.57;;;1.90;;
11960;SDS011;6040;49.358;11.140;2023-09-19T00:41:23;3.50;;;2.00;;
11960;SDS011;6040;49.358;11.140;2023-09-19T00:43:51;3.30;;;2.00;;
11960;SDS011;6040;49.358;11.140;2023-09-19T00:46:18;2.37;;;1.70;;
11960;SDS011;6040;49.358;11.140;2023-09-19T00:48:45;2.80;;;1.80;;
11960;SDS011;6040;49.358;11.140;2023-09-19T00:51:14;3.13;;;2.10;;
11960;SDS011;6040;49.358;11.140;2023-09-19T00:53:44;5.27;;;2.20;;
11960;SDS011;6040;49.358;11.140;2023-09-19T00:56:12;5.93;;;2.10;;
11960;SDS011;6040;49.358;11.140;2023-09-19T00:58:40;3.47;;;1.80;;
11960;SDS011;6040;49.358;11.140;2023-09-19T01:01:07;4.57;;;1.70;;
11960;SDS011;6040;49.358;11.140;2023-09-19T01:03:36;2.73;;;1.87;;
11960;SDS011;6040;49.358;11.140;2023-09-19T01:06:04;4.30;;;1.70;;
11960;SDS011;6040;49.358;11.140;2023-09-19T01:08:34;5.83;;;2.20;;
11960;SDS011;6040;49.358;11.140;2023-09-19T01:11:03;4.53;;;1.60;;
11960;SDS011;6040;49.358;11.140;2023-09-19T01:13:35;2.50;;;1.80;;
11960;SDS011;6040;49.358;11.140;2023-09-19T01:16:07;2.47;;;1.80;;
11960;SDS011;6040;49.358;11.140;2023-09-19T01:18:40;3.17;;;1.47;;
11960;SDS011;6040;49.358;11.140;2023-09-19T01:21:11;2.10;;;1.90;;
11960;SDS011;6040;49.358;11.140;2023-09-19T01:23:43;9.17;;;2.13;;
11960;SDS011;6040;49.358;11.140;2023-09-19T01:26:24;3.30;;;2.00;;
11960;SDS011;6040;49.358;11.140;2023-09-19T01:29:01;2.97;;;1.83;;
11960;SDS011;6040;49.358;11.140;2023-09-19T01:31:36;5.27;;;2.00;;
11960;SDS011;6040;49.358;11.140;2023-09-19T01:34:04;3.03;;;2.30;;
11960;SDS011;6040;49.358;11.140;2023-09-19T01:36:33;2.50;;;1.80;;
11960;SDS011;6040;49.358;11.140;2023-09-19T01:39:01;4.60;;;1.80;;
11960;SDS011;6040;49.358;11.140;2023-09-19T01:41:33;5.63;;;2.00;;
11960;SDS011;6040;49.358;11.140;2023-09-19T01:44:05;4.90;;;2.00;;
11960;SDS011;6040;49.358;11.140;2023-09-19T01:46:34;4.43;;;1.70;;
11960;SDS011;6040;49.358;11.140;2023-09-19T01:49:06;3.37;;;1.83;;
11960;SDS011;6040;49.358;11.140;2023-09-19T01:51:37;3.33;;;1.67;;
11960;SDS011;6040;49.358;11.140;2023-09-19T01:54:08;4.13;;;1.67;;
11960;SDS011;6040;49.358;11.140;2023-09-19T01:56:38;3.00;;;1.60;;
11960;SDS011;6040;49.358;11.140;2023-09-19T01:59:08;3.83;;;1.70;;
11960;SDS011;6040;49.358;11.140;2023-09-19T02:01:37;2.37;;;1.70;;
11960;SDS011;6040;49.358;11.140;2023-09-19T02:04:05;3.90;;;1.87;;
11960;SDS011;6040;49.358;11.140;2023-09-19T02:06:34;2.20;;;1.77;;
11960;SDS011;6040;49.358;11.140;2023-09-19T02:09:01;2.70;;;1.67;;
11960;SDS011;6040;49.358;11.140;2023-09-19T02:11:29;3.23;;;1.87;;
11960;SDS011;6040;49.358;11.140;2023-09-19T02:13:56;5.53;;;2.00;;
11960;SDS011;6040;49.358;11.140;2023-09-19T02:16:24;4.33;;;1.57;;
11960;SDS011;6040;49.358;11.140;2023-09-19T02:18:51;4.23;;;1.60;;
11960;SDS011;6040;49.358;11.140;2023-09-19T02:21:20;4.40;;;1.80;;
11960;SDS011;6040;49.358;11.140;2023-09-19T02:23:47;2.00;;;1.30;;
11960;SDS011;6040;49.358;11.140;2023-09-19T02:26:14;2.10;;;1.57;;
11960;SDS011;6040;49.358;11.140;2023-09-19T02:28:43;1.77;;;1.50;;
11960;SDS011;6040;49.358;11.140;2023-09-19T02:31:11;1.77;;;1.67;;
11960;SDS011;6040;49.358;11.140;2023-09-19T02:33:38;2.93;;;1.50;;
11960;SDS011;6040;49.358;11.140;2023-09-19T02:36:06;3.40;;;1.60;;
11960;SDS011;6040;49.358;11.140;2023-09-19T02:38:35;1.80;;;1.70;;
11960;SDS011;6040;49.358;11.140;2023-09-19T02:41:02;1.53;;;1.43;;
11960;SDS011;6040;49.358;11.140;2023-09-19T02:43:29;4.30;;;1.53;;
11960;SDS011;6040;49.358;11.140;2023-09-19T02:45:56;2.83;;;1.40;;
11960;SDS011;6040;49.358;11.140;2023-09-19T02:48:24;4.93;;;1.43;;
11960;SDS011;6040;49.358;11.140;2023-09-19T02:50:51;1.83;;;1.50;;
11960;SDS011;6040;49.358;11.140;2023-09-19T02:53:18;2.70;;;1.90;;
11960;SDS011;6040;49.358;11.140;2023-09-19T02:55:47;3.53;;;1.50;;
11960;SDS011;6040;49.358;11.140;2023-09-19T02:58:14;1.67;;;1.57;;
11960;SDS011;6040;49.358;11.140;2023-09-19T03:00:43;3.03;;;1.60;;
11960;SDS011;6040;49.358;11.140;2023-09-19T03:03:12;2.37;;;1.40;;
11960;SDS011;6040;49.358;11.140;2023-09-19T03:05:41;3.53;;;1.67;;
11960;SDS011;6040;49.358;11.140;2023-09-19T03:08:11;2.70;;;1.50;;
11960;SDS011;6040;49.358;11.140;2023-09-19T03:10:40;4.93;;;1.83;;
11960;SDS011;6040;49.358;11.140;2023-09-19T03:13:08;2.23;;;1.60;;
11960;SDS011;6040;49.358;11.140;2023-09-19T03:15:36;2.87;;;1.40;;
11960;SDS011;6040;49.358;11.140;2023-09-19T03:18:04;4.13;;;1.67;;
11960;SDS011;6040;49.358;11.140;2023-09-19T03:20:31;2.17;;;1.77;;
11960;SDS011;6040;49.358;11.140;2023-09-19T03:22:58;5.47;;;1.70;;
11960;SDS011;6040;49.358;11.140;2023-09-19T03:25:26;2.77;;;1.50;;
11960;SDS011;6040;49.358;11.140;2023-09-19T03:27:55;2.33;;;1.60;;
11960;SDS011;6040;49.358;11.140;2023-09-19T03:30:24;2.33;;;1.50;;
11960;SDS011;6040;49.358;11.140;2023-09-19T03:32:52;2.17;;;1.50;;
11960;SDS011;6040;49.358;11.140;2023-09-19T03:35:19;1.73;;;1.40;;
11960;SDS011;6040;49.358;11.140;2023-09-19T03:37:46;3.23;;;1.70;;
11960;SDS011;6040;49.358;11.140;2023-09-19T03:40:13;2.20;;;1.53;;
11960;SDS011;6040;49.358;11.140;2023-09-19T03:42:41;3.70;;;1.40;;
11960;SDS011;6040;49.358;11.140;2023-09-19T03:45:08;1.93;;;1.50;;
11960;SDS011;6040;49.358;11.140;2023-09-19T03:47:39;1.47;;;1.37;;
11960;SDS011;6040;49.358;11.140;2023-09-19T03:50:06;2.63;;;1.57;;
11960;SDS011;6040;49.358;11.140;2023-09-19T03:52:36;1.80;;;1.33;;
11960;SDS011;6040;49.358;11.140;2023-09-19T03:55:04;2.60;;;1.57;;
11960;SDS011;6040;49.358;11.140;2023-09-19T03:57:31;4.53;;;1.77;;
11960;SDS011;6040;49.358;11.140;2023-09-19T04:00:01;1.93;;;1.27;;
11960;SDS011;6040;49.358;11.140;2023-09-19T04:02:29;1.70;;;1.47;;
11960;SDS011;6040;49.358;11.140;2023-09-19T04:04:59;2.13;;;1.50;;
11960;SDS011;6040;49.358;11.140;2023-09-19T04:07:26;3.00;;;1.60;;
11960;SDS011;6040;49.358;11.140;2023-09-19T04:09:54;3.90;;;1.53;;
11960;SDS011;6040;49.358;11.140;2023-09-19T04:12:21;1.93;;;1.70;;
11960;SDS011;6040;49.358;11.140;2023-09-19T04:14:48;4.43;;;1.40;;
11960;SDS011;6040;49.358;11.140;2023-09-19T04:17:16;3.17;;;1.60;;
11960;SDS011;6040;49.358;11.140;2023-09-19T04:19:43;1.73;;;1.33;;
11960;SDS011;6040;49.358;11.140;2023-09-19T04:22:12;3.27;;;1.80;;
11960;SDS011;6040;49.358;11.140;2023-09-19T04:24:39;4.80;;;1.60;;
11960;SDS011;6040;49.358;11.140;2023-09-19T04:27:06;2.63;;;1.63;;
11960;SDS011;6040;49.358;11.140;2023-09-19T04:29:34;1.50;;;1.40;;
11960;SDS011;6040;49.358;11.140;2023-09-19T04:32:03;1.60;;;1.50;;
11960;SDS011;6040;49.358;11.140;2023-09-19T04:34:31;1.60;;;1.50;;
11960;SDS011;6040;49.358;11.140;2023-09-19T04:36:59;4.27;;;1.70;;
11960;SDS011;6040;49.358;11.140;2023-09-19T04:39:28;2.60;;;1.70;;
11960;SDS011;6040;49.358;11.140;2023-09-19T04:41:55;2.60;;;1.67;;
11960;SDS011;6040;49.358;11.140;2023-09-19T04:44:23;1.60;;;1.50;;
11960;SDS011;6040;49.358;11.140;2023-09-19T04:46:50;8.13;;;1.60;;
11960;SDS011;6040;49.358;11.140;2023-09-19T04:49:18;1.60;;;1.50;;
11960;SDS011;6040;49.358;11.140;2023-09-19T04:51:45;2.20;;;1.60;;
11960;SDS011;6040;49.358;11.140;2023-09-19T04:54:12;3.17;;;1.67;;
11960;SDS011;6040;49.358;11.140;2023-09-19T04:56:41;3.70;;;1.90;;
11960;SDS011;6040;49.358;11.140;2023-09-19T04:59:08;2.63;;;1.60;;
11960;SDS011;6040;49.358;11.140;2023-09-19T05:01:35;2.23;;;1.50;;
11960;SDS011;6040;49.358;11.140;2023-09-19T05:04:03;4.90;;;1.60;;
11960;SDS011;6040;49.358;11.140;2023-09-19T05:06:30;1.60;;;1.50;;
11960;SDS011;6040;49.358;11.140;2023-09-19T05:08:58;4.53;;;1.50;;
11960;SDS011;6040;49.358;11.140;2023-09-19T05:11:25;1.50;;;1.40;;
11960;SDS011;6040;49.358;11.140;2023-09-19T05:13:56;3.13;;;1.57;;
11960;SDS011;6040;49.358;11.140;2023-09-19T05:16:28;1.93;;;1.60;;
11960;SDS011;6040;49.358;11.140;2023-09-19T05:18:56;3.93;;;1.80;;
11960;SDS011;6040;49.358;11.140;2023-09-19T05:21:25;2.70;;;1.80;;
11960;SDS011;6040;49.358;11.140;2023-09-19T05:23:53;2.43;;;1.57;;
11960;SDS011;6040;49.358;11.140;2023-09-19T05:26:21;2.17;;;1.63;;
11960;SDS011;6040;49.358;11.140;2023-09-19T05:28:48;2.00;;;1.50;;
11960;SDS011;6040;49.358;11.140;2023-09-19T05:31:16;6.00;;;1.90;;
11960;SDS011;6040;49.358;11.140;2023-09-19T05:33:43;3.63;;;2.00;;
11960;SDS011;6040;49.358;11.140;2023-09-19T05:36:10;1.67;;;1.57;;
11960;SDS011;6040;49.358;11.140;2023-09-19T05:38:37;2.67;;;1.70;;
11960;SDS011;6040;49.358;11.140;2023-09-19T05:41:07;1.63;;;1.53;;
11960;SDS011;6040;49.358;11.140;2023-09-19T05:43:34;2.43;;;1.60;;
11960;SDS011;6040;49.358;11.140;2023-09-19T05:46:02;4.77;;;1.70;;
11960;SDS011;6040;49.358;11.140;2023-09-19T05:48:30;2.00;;;1.80;;
11960;SDS011;6040;49.358;11.140;2023-09-19T05:50:58;7.13;;;1.60;;
11960;SDS011;6040;49.358;11.140;2023-09-19T05:53:26;3.03;;;1.83;;
11960;SDS011;6040;49.358;11.140;2023-09-19T05:55:53;3.30;;;1.70;;
11960;SDS011;6040;49.358;11.140;2023-09-19T05:58:20;3.53;;;1.60;;
11960;SDS011;6040;49.358;11.140;2023-09-19T06:00:47;3.27;;;1.80;;
11960;SDS011;6040;49.358;11.140;2023-09-19T06:03:15;2.33;;;1.67;;
11960;SDS011;6040;49.358;11.140;2023-09-19T06:05:45;1.70;;;1.60;;
11960;SDS011;6040;49.358;11.140;2023-09-19T06:08:14;3.30;;;1.43;;
11960;SDS011;6040;49.358;11.140;2023-09-19T06:10:41;1.63;;;1.40;;
11960;SDS011;6040;49.358;11.140;2023-09-19T06:13:08;1.60;;;1.50;;
11960;SDS011;6040;49.358;11.140;2023-09-19T06:15:36;2.80;;;1.53;;
11960;SDS011;6040;49.358;11.140;2023-09-19T06:18:03;3.47;;;1.63;;
11960;SDS011;6040;49.358;11.140;2023-09-19T06:20:30;3.97;;;1.90;;
11960;SDS011;6040;49.358;11.140;2023-09-19T06:22:59;3.00;;;1.50;;
11960;SDS011;6040;49.358;11.140;2023-09-19T06:25:27;1.90;;;1.63;;
11960;SDS011;6040;49.358;11.140;2023-09-19T06:27:54;1.60;;;1.40;;
11960;SDS011;6040;49.358;11.140;2023-09-19T06:30:22;2.60;;;1.67;;
11960;SDS011;6040;49.358;11.140;2023-09-19T06:32:51;3.80;;;1.80;;
11960;SDS011;6040;49.358;11.140;2023-09-19T06:35:22;1.90;;;1.63;;
11960;SDS011;6040;49.358;11.140;2023-09-19T06:37:51;2.40;;;1.60;;
11960;SDS011;6040;49.358;11.140;2023-09-19T06:40:20;1.83;;;1.40;;
11960;SDS011;6040;49.358;11.140;2023-09-19T06:42:50;4.17;;;1.70;;
11960;SDS011;6040;49.358;11.140;2023-09-19T06:45:18;3.10;;;1.47;;
11960;SDS011;6040;49.358;11.140;2023-09-19T06:47:46;1.33;;;1.20;;
11960;SDS011;6040;49.358;11.140;2023-09-19T06:50:15;2.20;;;1.40;;
11960;SDS011;6040;49.358;11.140;2023-09-19T06:52:44;2.53;;;1.50;;
11960;SDS011;6040;49.358;11.140;2023-09-19T06:55:13;2.03;;;1.33;;
11960;SDS011;6040;49.358;11.140;2023-09-19T06:57:42;1.60;;;1.33;;
11960;SDS011;6040;49.358;11.140;2023-09-19T07:00:09;1.63;;;1.27;;
11960;SDS011;6040;49.358;11.140;2023-09-19T07:02:43;1.77;;;1.40;;
11960;SDS011;6040;49.358;11.140;2023-09-19T07:05:10;1.63;;;1.30;;
11960;SDS011;6040;49.358;11.140;2023-09-19T07:07:37;2.37;;;1.40;;
11960;SDS011;6040;49.358;11.140;2023-09-19T07:10:05;2.17;;;1.23;;
11960;SDS011;6040;49.358;11.140;2023-09-19T07:12:33;2.73;;;1.47;;
11960;SDS011;6040;49.358;11.140;2023-09-19T07:15:01;2.87;;;1.30;;
11960;SDS011;6040;49.358;11.140;2023-09-19T07:17:30;1.40;;;1.30;;
11960;SDS011;6040;49.358;11.140;2023-09-19T07:19:58;2.30;;;1.20;;
11960;SDS011;6040;49.358;11.140;2023-09-19T07:22:25;2.47;;;1.20;;
11960;SDS011;6040;49.358;11.140;2023-09-19T07:24:52;1.47;;;1.37;;
11960;SDS011;6040;49.358;11.140;2023-09-19T07:27:19;2.77;;;1.37;;
11960;SDS011;6040;49.358;11.140;2023-09-19T07:29:47;1.80;;;1.30;;
11960;SDS011;6040;49.358;11.140;2023-09-19T07:32:15;1.63;;;1.30;;
11960;SDS011;6040;49.358;11.140;2023-09-19T07:34:43;2.50;;;1.20;;
11960;SDS011;6040;49.358;11.140;2023-09-19T07:37:09;1.53;;;1.40;;
11960;SDS011;6040;49.358;11.140;2023-09-19T07:39:38;1.97;;;1.53;;
11960;SDS011;6040;49.358;11.140;2023-09-19T07:42:06;2.53;;;1.47;;
11960;SDS011;6040;49.358;11.140;2023-09-19T07:44:34;2.57;;;1.53;;
11960;SDS011;6040;49.358;11.140;2023-09-19T07:47:01;3.20;;;1.53;;
11960;SDS011;6040;49.358;11.140;2023-09-19T07:49:29;2.67;;;1.33;;
11960;SDS011;6040;49.358;11.140;2023-09-19T07:51:56;2.73;;;1.50;;
11960;SDS011;6040;49.358;11.140;2023-09-19T07:54:24;1.87;;;1.57;;
11960;SDS011;6040;49.358;11.140;2023-09-19T07:56:51;5.43;;;2.70;;
11960;SDS011;6040;49.358;11.140;2023-09-19T07:59:20;2.55;;;1.60;;
11960;SDS011;6040;49.358;11.140;2023-09-19T08:01:47;3.13;;;1.80;;
11960;SDS011;6040;49.358;11.140;2023-09-19T08:04:14;3.40;;;1.73;;
11960;SDS011;6040;49.358;11.140;2023-09-19T08:06:42;1.87;;;1.50;;
11960;SDS011;6040;49.358;11.140;2023-09-19T08:09:09;2.20;;;1.60;;
11960;SDS011;6040;49.358;11.140;2023-09-19T08:11:37;2.77;;;1.73;;
11960;SDS011;6040;49.358;11.140;2023-09-19T08:14:04;2.20;;;1.57;;
11960;SDS011;6040;49.358;11.140;2023-09-19T08:16:33;2.30;;;1.63;;
11960;SDS011;6040;49.358;11.140;2023-09-19T08:19:00;2.57;;;1.43;;
11960;SDS011;6040;49.358;11.140;2023-09-19T08:21:27;2.27;;;1.70;;
11960;SDS011;6040;49.358;11.140;2023-09-19T08:23:56;2.83;;;1.63;;
11960;SDS011;6040;49.358;11.140;2023-09-19T08:26:23;3.50;;;1.63;;
11960;SDS011;6040;49.358;11.140;2023-09-19T08:28:50;2.47;;;1.67;;
11960;SDS011;6040;49.358;11.140;2023-09-19T08:31:18;2.17;;;1.57;;
11960;SDS011;6040;49.358;11.140;2023-09-19T08:33:45;1.97;;;1.50;;
11960;SDS011;6040;49.358;11.140;2023-09-19T08:36:16;2.97;;;1.83;;
11960;SDS011;6040;49.358;11.140;2023-09-19T08:38:43;4.07;;;1.80;;
11960;SDS011;6040;49.358;11.140;2023-09-19T08:41:11;2.13;;;1.57;;
11960;SDS011;6040;49.358;11.140;2023-09-19T08:43:38;2.33;;;1.67;;
11960;SDS011;6040;49.358;11.140;2023-09-19T08:46:07;1.87;;;1.57;;
11960;SDS011;6040;49.358;11.140;2023-09-19T08:48:38;2.53;;;1.60;;
11960;SDS011;6040;49.358;11.140;2023-09-19T08:51:10;2.23;;;1.77;;
11960;SDS011;6040;49.358;11.140;2023-09-19T08:53:47;2.23;;;1.50;;
11960;SDS011;6040;49.358;11.140;2023-09-19T08:56:19;2.07;;;1.43;;
11960;SDS011;6040;49.358;11.140;2023-09-19T08:58:50;1.97;;;1.70;;
11960;SDS011;6040;49.358;11.140;2023-09-19T09:01:19;1.50;;;1.40;;
11960;SDS011;6040;49.358;11.140;2023-09-19T09:03:49;3.57;;;1.30;;
11960;SDS011;6040;49.358;11.140;2023-09-19T09:06:18;1.53;;;1.30;;
11960;SDS011;6040;49.358;11.140;2023-09-19T09:08:46;1.90;;;1.30;;
11960;SDS011;6040;49.358;11.140;2023-09-19T09:11:14;1.67;;;1.50;;
11960;SDS011;6040;49.358;11.140;2023-09-19T09:13:43;2.50;;;1.30;;
11960;SDS011;6040;49.358;11.140;2023-09-19T09:16:11;1.97;;;1.40;;
11960;SDS011;6040;49.358;11.140;2023-09-19T09:18:38;2.83;;;1.67;;
11960;SDS011;6040;49.358;11.140;2023-09-19T09:21:06;1.60;;;1.30;;
11960;SDS011;6040;49.358;11.140;2023-09-19T09:23:33;2.70;;;1.30;;
11960;SDS011;6040;49.358;11.140;2023-09-19T09:26:00;2.03;;;1.43;;
11960;SDS011;6040;49.358;11.140;2023-09-19T09:28:30;2.80;;;1.40;;
11960;SDS011;6040;49.358;11.140;2023-09-19T09:31:00;2.43;;;1.37;;
11960;SDS011;6040;49.358;11.140;2023-09-19T09:33:27;3.60;;;1.43;;
11960;SDS011;6040;49.358;11.140;2023-09-19T09:35:55;1.60;;;1.30;;
11960;SDS011;6040;49.358;11.140;2023-09-19T09:38:25;2.00;;;1.20;;
11960;SDS011;6040;49.358;11.140;2023-09-19T09:40:53;1.50;;;1.20;;
11960;SDS011;6040;49.358;11.140;2023-09-19T09:43:31;2.53;;;1.77;;
11960;SDS011;6040;49.358;11.140;2023-09-19T09:46:11;2.50;;;1.57;;
11960;SDS011;6040;49.358;11.140;2023-09-19T09:48:57;2.30;;;1.70;;
11960;SDS011;6040;49.358;11.140;2023-09-19T09:51:43;3.27;;;1.50;;
11960;SDS011;6040;49.358;11.140;2023-09-19T09:54:14;2.80;;;1.63;;
11960;SDS011;6040;49.358;11.140;2023-09-19T09:56:54;3.77;;;1.57;;
11960;SDS011;6040;49.358;11.140;2023-09-19T10:02:18;1.73;;;1.40;;
11960;SDS011;6040;49.358;11.140;2023-09-19T10:04:49;5.00;;;1.70;;
11960;SDS011;6040;49.358;11.140;2023-09-19T10:07:37;4.43;;;1.63;;
11960;SDS011;6040;49.358;11.140;2023-09-19T10:10:07;2.10;;;1.30;;
11960;SDS011;6040;49.358;11.140;2023-09-19T10:12:47;5.07;;;1.63;;
11960;SDS011;6040;49.358;11.140;2023-09-19T10:15:15;2.90;;;1.60;;
11960;SDS011;6040;49.358;11.140;2023-09-19T10:17:47;3.77;;;1.67;;
11960;SDS011;6040;49.358;11.140;2023-09-19T10:20:14;2.17;;;1.50;;
11960;SDS011;6040;49.358;11.140;2023-09-19T10:23:04;3.50;;;1.40;;
11960;SDS011;6040;49.358;11.140;2023-09-19T10:25:37;2.40;;;1.70;;
11960;SDS011;6040;49.358;11.140;2023-09-19T10:28:06;1.47;;;1.37;;
11960;SDS011;6040;49.358;11.140;2023-09-19T10:30:40;2.40;;;1.40;;
11960;SDS011;6040;49.358;11.140;2023-09-19T10:33:11;2.73;;;1.40;;
11960;SDS011;6040;49.358;11.140;2023-09-19T10:35:40;2.77;;;1.73;;
11960;SDS011;6040;49.358;11.140;2023-09-19T10:38:10;3.23;;;1.60;;
11960;SDS011;6040;49.358;11.140;2023-09-19T10:40:39;2.70;;;1.60;;
11960;SDS011;6040;49.358;11.140;2023-09-19T10:43:11;1.93;;;1.50;;
11960;SDS011;6040;49.358;11.140;2023-09-19T10:45:39;2.23;;;1.80;;
11960;SDS011;6040;49.358;11.140;2023-09-19T10:48:09;1.50;;;1.40;;
11960;SDS011;6040;49.358;11.140;2023-09-19T10:50:41;3.10;;;1.57;;
11960;SDS011;6040;49.358;11.140;2023-09-19T10:53:12;2.77;;;1.67;;
11960;SDS011;6040;49.358;11.140;2023-09-19T10:55:40;2.77;;;1.70;;
11960;SDS011;6040;49.358;11.140;2023-09-19T10:58:24;3.33;;;1.50;;
11960;SDS011;6040;49.358;11.140;2023-09-19T11:00:55;2.17;;;1.60;;
11960;SDS011;6040;49.358;11.140;2023-09-19T11:03:27;2.47;;;1.50;;
11960;SDS011;6040;49.358;11.140;2023-09-19T11:06:07;1.83;;;1.50;;
11960;SDS011;6040;49.358;11.140;2023-09-19T11:08:52;2.43;;;1.63;;
11960;SDS011;6040;49.358;11.140;2023-09-19T11:11:44;3.97;;;1.80;;
11960;SDS011;6040;49.358;11.140;2023-09-19T11:14:16;5.63;;;1.53;;
11960;SDS011;6040;49.358;11.140;2023-09-19T11:20:19;1.67;;;1.57;;
11960;SDS011;6040;49.358;11.140;2023-09-19T11:23:18;3.77;;;1.60;;
11960;SDS011;6040;49.358;11.140;2023-09-19T11:25:52;4.10;;;1.50;;
11960;SDS011;6040;49.358;11.140;2023-09-19T11:28:28;1.63;;;1.53;;
11960;SDS011;6040;49.358;11.140;2023-09-19T11:30:56;2.13;;;1.20;;
11960;SDS011;6040;49.358;11.140;2023-09-19T11:33:24;1.57;;;1.47;;
11960;SDS011;6040;49.358;11.140;2023-09-19T11:35:59;4.87;;;1.60;;
11960;SDS011;6040;49.358;11.140;2023-09-19T11:41:39;2.13;;;1.40;;
11960;SDS011;6040;49.358;11.140;2023-09-19T11:47:07;2.97;;;1.33;;
11960;SDS011;6040;49.358;11.140;2023-09-19T11:49:38;2.97;;;1.43;;
11960;SDS011;6040;49.358;11.140;2023-09-19T11:52:07;1.43;;;1.33;;
11960;SDS011;6040;49.358;11.140;2023-09-19T11:54:36;1.80;;;1.40;;
11960;SDS011;6040;49.358;11.140;2023-09-19T11:57:06;5.17;;;1.20;;
11960;SDS011;6040;49.358;11.140;2023-09-19T11:59:38;2.43;;;1.40;;
11960;SDS011;6040;49.358;11.140;2023-09-19T12:02:05;1.30;;;1.00;;
11960;SDS011;6040;49.358;11.140;2023-09-19T12:04:35;3.57;;;1.30;;
11960;SDS011;6040;49.358;11.140;2023-09-19T12:07:03;3.27;;;1.27;;
11960;SDS011;6040;49.358;11.140;2023-09-19T12:09:38;1.87;;;1.23;;
11960;SDS011;6040;49.358;11.140;2023-09-19T12:12:09;2.90;;;1.50;;
11960;SDS011;6040;49.358;11.140;2023-09-19T12:14:37;1.47;;;1.23;;
11960;SDS011;6040;49.358;11.140;2023-09-19T12:17:07;1.77;;;1.20;;
11960;SDS011;6040;49.358;11.140;2023-09-19T12:19:34;1.43;;;1.10;;
11960;SDS011;6040;49.358;11.140;2023-09-19T12:22:01;2.33;;;1.50;;
11960;SDS011;6040;49.358;11.140;2023-09-19T12:24:30;1.60;;;1.30;;
11960;SDS011;6040;49.358;11.140;2023-09-19T12:27:03;1.30;;;1.07;;
11960;SDS011;6040;49.358;11.140;2023-09-19T12:29:31;1.50;;;1.10;;
11960;SDS011;6040;49.358;11.140;2023-09-19T12:32:07;3.43;;;1.40;;
11960;SDS011;6040;49.358;11.140;2023-09-19T12:34:34;2.07;;;1.30;;
11960;SDS011;6040;49.358;11.140;2023-09-19T12:37:05;2.73;;;1.40;;
11960;SDS011;6040;49.358;11.140;2023-09-19T12:39:36;1.40;;;1.20;;
11960;SDS011;6040;49.358;11.140;2023-09-19T12:42:07;2.70;;;1.10;;
11960;SDS011;6040;49.358;11.140;2023-09-19T12:44:36;2.27;;;1.40;;
11960;SDS011;6040;49.358;11.140;2023-09-19T12:47:11;1.53;;;1.10;;
11960;SDS011;6040;49.358;11.140;2023-09-19T12:52:35;2.20;;;1.30;;
11960;SDS011;6040;49.358;11.140;2023-09-19T12:55:03;1.70;;;1.43;;
11960;SDS011;6040;49.358;11.140;2023-09-19T12:57:33;1.10;;;1.00;;
11960;SDS011;6040;49.358;11.140;2023-09-19T13:00:00;3.10;;;1.50;;
11960;SDS011;6040;49.358;11.140;2023-09-19T13:02:27;2.10;;;1.50;;
11960;SDS011;6040;49.358;11.140;2023-09-19T13:04:54;3.00;;;1.33;;
11960;SDS011;6040;49.358;11.140;2023-09-19T13:07:40;2.40;;;1.50;;
11960;SDS011;6040;49.358;11.140;2023-09-19T13:10:10;3.03;;;1.23;;
11960;SDS011;6040;49.358;11.140;2023-09-19T13:12:41;2.53;;;1.30;;
11960;SDS011;6040;49.358;11.140;2023-09-19T13:15:13;3.40;;;1.60;;
11960;SDS011;6040;49.358;11.140;2023-09-19T13:17:44;2.37;;;1.37;;
11960;SDS011;6040;49.358;11.140;2023-09-19T13:20:20;2.03;;;1.30;;
11960;SDS011;6040;49.358;11.140;2023-09-19T13:22:49;3.17;;;1.20;;
11960;SDS011;6040;49.358;11.140;2023-09-19T13:25:19;3.60;;;1.40;;
11960;SDS011;6040;49.358;11.140;2023-09-19T13:27:49;1.53;;;1.43;;
11960;SDS011;6040;49.358;11.140;2023-09-19T13:30:17;3.87;;;1.40;;
11960;SDS011;6040;49.358;11.140;2023-09-19T13:32:44;1.50;;;1.40;;
11960;SDS011;6040;49.358;11.140;2023-09-19T13:35:12;2.67;;;1.20;;
11960;SDS011;6040;49.358;11.140;2023-09-19T13:37:40;2.43;;;1.47;;
11960;SDS011;6040;49.358;11.140;2023-09-19T13:40:08;2.37;;;1.33;;
11960;SDS011;6040;49.358;11.140;2023-09-19T13:42:36;2.20;;;1.30;;
11960;SDS011;6040;49.358;11.140;2023-09-19T13:45:04;3.33;;;1.60;;
11960;SDS011;6040;49.358;11.140;2023-09-19T13:47:35;2.23;;;1.50;;
11960;SDS011;6040;49.358;11.140;2023-09-19T13:50:03;1.53;;;1.20;;
11960;SDS011;6040;49.358;11.140;2023-09-19T13:52:31;1.67;;;1.33;;
11960;SDS011;6040;49.358;11.140;2023-09-19T13:54:58;1.77;;;1.30;;
11960;SDS011;6040;49.358;11.140;2023-09-19T13:57:25;4.60;;;1.50;;
11960;SDS011;6040;49.358;11.140;2023-09-19T13:59:54;2.83;;;1.40;;
11960;SDS011;6040;49.358;11.140;2023-09-19T14:02:22;2.80;;;1.27;;
11960;SDS011;6040;49.358;11.140;2023-09-19T14:04:49;2.10;;;1.40;;
11960;SDS011;6040;49.358;11.140;2023-09-19T14:07:16;3.30;;;1.40;;
11960;SDS011;6040;49.358;11.140;2023-09-19T14:09:45;1.53;;;1.37;;
11960;SDS011;6040;49.358;11.140;2023-09-19T14:12:12;4.00;;;1.50;;
11960;SDS011;6040;49.358;11.140;2023-09-19T14:14:39;4.70;;;1.37;;
11960;SDS011;6040;49.358;11.140;2023-09-19T14:17:07;2.23;;;1.43;;
11960;SDS011;6040;49.358;11.140;2023-09-19T14:19:35;2.63;;;1.30;;
11960;SDS011;6040;49.358;11.140;2023-09-19T14:22:03;1.47;;;1.20;;
11960;SDS011;6040;49.358;11.140;2023-09-19T14:24:32;2.20;;;1.17;;
11960;SDS011;6040;49.358;11.140;2023-09-19T14:27:00;3.77;;;1.33;;
11960;SDS011;6040;49.358;11.140;2023-09-19T14:29:29;1.67;;;1.20;;
11960;SDS011;6040;49.358;11.140;2023-09-19T14:31:56;1.40;;;1.30;;
11960;SDS011;6040;49.358;11.140;2023-09-19T14:34:23;2.27;;;1.67;;
11960;SDS011;6040;49.358;11.140;2023-09-19T14:36:52;3.27;;;1.40;;
11960;SDS011;6040;49.358;11.140;2023-09-19T14:39:19;2.93;;;1.37;;
11960;SDS011;6040;49.358;11.140;2023-09-19T14:41:46;2.50;;;1.40;;
11960;SDS011;6040;49.358;11.140;2023-09-19T14:44:13;1.67;;;1.47;;
11960;SDS011;6040;49.358;11.140;2023-09-19T14:46:41;1.63;;;1.20;;
11960;SDS011;6040;49.358;11.140;2023-09-19T14:49:08;1.57;;;1.30;;
11960;SDS011;6040;49.358;11.140;2023-09-19T14:51:35;2.67;;;1.40;;
11960;SDS011;6040;49.358;11.140;2023-09-19T14:54:06;2.47;;;1.40;;
11960;SDS011;6040;49.358;11.140;2023-09-19T14:56:33;2.97;;;1.40;;
11960;SDS011;6040;49.358;11.140;2023-09-19T14:59:00;3.80;;;1.50;;
11960;SDS011;6040;49.358;11.140;2023-09-19T15:01:27;1.73;;;1.43;;
11960;SDS011;6040;49.358;11.140;2023-09-19T15:03:55;1.47;;;1.27;;
11960;SDS011;6040;49.358;11.140;2023-09-19T15:06:22;3.60;;;1.60;;
11960;SDS011;6040;49.358;11.140;2023-09-19T15:08:48;1.47;;;1.30;;
11960;SDS011;6040;49.358;11.140;2023-09-19T15:11:17;2.43;;;1.10;;
11960;SDS011;6040;49.358;11.140;2023-09-19T15:13:45;2.27;;;1.40;;
11960;SDS011;6040;49.358;11.140;2023-09-19T15:16:13;2.33;;;1.13;;